Terminal Aerodrome Forecast
Issued by NWS Shreveport, LA

Home | Current Version | Previous Version | Text Only | Print | Product List | Glossary On
Versions: 1 2 3 4 5 6 7 8 9 10 11 12 13 14 15 16
443
FTUS44 KSHV 240543
TAFSHV
TAF
KSHV 240543Z 2406/2506 18009KT P6SM SKC
     FM241000 20010KT P6SM SCT005 BKN010
      TEMPO 2413/2416 OVC005
     FM241800 25012KT P6SM BKN015 OVC025
     FM242100 30013G20KT P6SM SCT030
     FM250000 32009KT P6SM SKC=

USA.gov is the U.S. government's official web portal to all federal, state and local government web resources and services.